Aviation Digital Data Service (ADDS)

Output produced by METARs form (2046 UTC 28 February 2015)
found at http://aviationweather.gov/adds/metars/
 
KPNE 281727Z 2818/0118 31004KT P6SM SCT250 
     FM010700 VRB02KT P6SM OVC120 
     FM011400 12005KT P6SM OVC050 
     FM011700 14004KT 6SM -SN OVC030